Terminal Aerodrome Forecast
Issued by NWS Twin Cities, MN

Home | Current Version | Previous Version | Text Only | Print | Product List | Glossary Off
Versions: 1 2 3 4 5 6 7 8 9 10 11 12 13 14 15 16 17 18

810
FTUS43 KMPX 131739
TAFSTC
TAF
KSTC 131739Z 1318/1418 12009KT P6SM -SHRA SCT050 OVC080
      TEMPO 1318/1319 4SM -TSRA BKN050CB
     FM132300 16008KT P6SM -SHRA BKN050 BKN080
      TEMPO 1323/1403 4SM TSRA SCT012 OVC035CB
     FM140300 12008KT P6SM -SHRA VCTS SCT012 BKN040CB
     FM140600 12008KT 6SM BR VCSH SCT010 OVC020
     FM140800 10006KT 3SM BR OVC008=

USA.gov is the U.S. government's official web portal to all federal, state and local government web resources and services.